createdAt,value
2022-12-03T00:01:51.193Z,13.20
2022-12-03T00:04:18.345Z,13.90
2022-12-03T00:06:45.455Z,11.93
2022-12-03T00:09:12.764Z,12.25
2022-12-03T00:11:39.918Z,10.73
2022-12-03T00:14:07.021Z,12.48
2022-12-03T00:16:34.081Z,9.93
2022-12-03T00:19:01.260Z,13.80
2022-12-03T00:21:28.350Z,13.65
2022-12-03T00:23:55.451Z,19.20
2022-12-03T00:26:22.599Z,13.25
2022-12-03T00:28:49.663Z,13.48
2022-12-03T00:31:17.085Z,13.45
2022-12-03T00:33:44.241Z,10.77
2022-12-03T00:36:11.340Z,17.05
2022-12-03T00:38:38.443Z,17.15
2022-12-03T00:41:05.711Z,12.43
2022-12-03T00:43:32.802Z,13.10
2022-12-03T00:46:00.183Z,11.10
2022-12-03T00:48:27.414Z,12.85
2022-12-03T00:50:54.474Z,12.02
2022-12-03T00:53:21.559Z,12.35
2022-12-03T00:55:50.722Z,11.65
2022-12-03T00:58:18.291Z,10.57
2022-12-03T01:00:45.372Z,13.55
2022-12-03T01:03:12.608Z,13.00
2022-12-03T01:05:39.741Z,12.38
2022-12-03T01:08:06.940Z,13.48
2022-12-03T01:10:34.251Z,10.80
2022-12-03T01:13:01.314Z,13.98
2022-12-03T01:15:28.389Z,11.05
2022-12-03T01:17:55.617Z,12.60
2022-12-03T01:20:22.784Z,10.18
2022-12-03T01:22:49.886Z,11.88
2022-12-03T01:25:17.112Z,11.57
2022-12-03T01:27:44.209Z,13.18
2022-12-03T01:30:12.750Z,12.43
2022-12-03T01:32:39.925Z,11.63
2022-12-03T01:35:07.160Z,11.57
2022-12-03T01:37:34.285Z,14.25
2022-12-03T01:40:01.517Z,14.23
2022-12-03T01:42:33.340Z,13.45
2022-12-03T01:45:01.028Z,10.18
2022-12-03T01:47:32.244Z,9.38
2022-12-03T01:50:04.181Z,12.75
2022-12-03T01:52:33.181Z,11.27
2022-12-03T01:55:01.410Z,14.45
2022-12-03T01:57:30.557Z,11.35
2022-12-03T01:59:58.491Z,12.68
2022-12-03T02:02:26.832Z,9.20
2022-12-03T02:04:54.824Z,10.77
2022-12-03T02:07:30.033Z,10.98
2022-12-03T02:09:58.391Z,11.88
2022-12-03T02:12:28.619Z,13.63
2022-12-03T02:14:56.058Z,12.65
2022-12-03T02:17:23.378Z,12.27
2022-12-03T02:19:50.581Z,12.18
2022-12-03T02:22:20.709Z,12.18
2022-12-03T02:25:08.099Z,12.07
2022-12-03T02:27:35.263Z,12.27
2022-12-03T02:30:02.381Z,13.35
2022-12-03T02:32:29.464Z,10.02
2022-12-03T02:34:56.867Z,12.48
2022-12-03T02:37:26.132Z,12.20
2022-12-03T02:39:55.504Z,13.63
2022-12-03T02:42:35.677Z,10.10
2022-12-03T02:45:06.130Z,13.82
2022-12-03T02:47:34.668Z,12.60
2022-12-03T02:50:01.989Z,10.98
2022-12-03T02:52:29.233Z,11.98
2022-12-03T02:54:56.472Z,11.35
2022-12-03T02:57:23.764Z,16.27
2022-12-03T02:59:51.112Z,13.07
2022-12-03T03:02:18.451Z,12.32
2022-12-03T03:04:46.059Z,11.63
2022-12-03T03:07:13.472Z,12.70
2022-12-03T03:09:40.819Z,12.27
2022-12-03T03:12:08.260Z,12.52
2022-12-03T03:14:35.489Z,16.05
2022-12-03T03:17:02.749Z,11.50
2022-12-03T03:19:30.688Z,11.98
2022-12-03T03:21:57.810Z,12.98
2022-12-03T03:24:25.285Z,11.98
2022-12-03T03:26:52.561Z,15.02
2022-12-03T03:29:19.865Z,13.45
2022-12-03T03:31:47.351Z,11.98
2022-12-03T03:34:15.338Z,12.07
2022-12-03T03:36:42.750Z,11.50
2022-12-03T03:39:09.992Z,12.02
2022-12-03T03:41:37.476Z,10.25
2022-12-03T03:44:06.731Z,10.30
2022-12-03T03:46:34.520Z,15.20
2022-12-03T03:49:03.051Z,9.80
2022-12-03T03:51:30.259Z,10.45
2022-12-03T03:53:57.452Z,10.52
2022-12-03T03:56:25.038Z,12.85
2022-12-03T03:58:52.195Z,16.25
2022-12-03T04:01:19.420Z,12.60
2022-12-03T04:03:46.854Z,15.63
2022-12-03T04:06:13.992Z,16.15
2022-12-03T04:08:41.067Z,15.27
2022-12-03T04:11:27.043Z,15.95
2022-12-03T04:13:54.177Z,13.25
2022-12-03T04:16:21.293Z,14.88
2022-12-03T04:18:48.620Z,14.88
2022-12-03T04:21:35.467Z,13.60
2022-12-03T04:24:02.832Z,14.65
2022-12-03T04:26:49.931Z,13.77
2022-12-03T04:29:17.304Z,12.93
2022-12-03T04:32:03.201Z,14.75
2022-12-03T04:34:49.264Z,15.32
2022-12-03T04:37:16.727Z,12.48
2022-12-03T04:39:43.794Z,15.15
2022-12-03T04:42:11.071Z,15.52
2022-12-03T04:44:38.472Z,12.57
2022-12-03T04:47:07.207Z,16.60
2022-12-03T04:49:34.657Z,11.27
2022-12-03T04:52:01.856Z,14.23
2022-12-03T04:54:29.215Z,12.70
2022-12-03T04:56:56.671Z,10.88
2022-12-03T04:59:24.007Z,10.82
2022-12-03T05:01:51.267Z,14.20
2022-12-03T05:04:18.535Z,11.90
2022-12-03T05:06:45.709Z,13.20
2022-12-03T05:09:13.263Z,12.65
2022-12-03T05:11:40.809Z,11.15
2022-12-03T05:14:08.313Z,13.52
2022-12-03T05:16:35.849Z,14.18
2022-12-03T05:19:03.448Z,8.60
2022-12-03T05:21:30.577Z,12.15
2022-12-03T05:23:57.700Z,12.38
2022-12-03T05:26:24.961Z,11.07
2022-12-03T05:28:52.037Z,11.95
2022-12-03T05:31:19.222Z,11.48
2022-12-03T05:33:46.400Z,10.30
2022-12-03T05:36:13.507Z,12.38
2022-12-03T05:38:40.620Z,14.25
2022-12-03T05:41:27.787Z,12.35
2022-12-03T05:43:54.886Z,12.15
2022-12-03T05:46:22.126Z,10.90
2022-12-03T05:48:49.342Z,13.20
2022-12-03T05:51:16.470Z,15.98
2022-12-03T05:53:43.582Z,11.63
2022-12-03T05:56:10.744Z,12.60
2022-12-03T05:58:37.824Z,14.85
2022-12-03T06:01:04.912Z,11.88
2022-12-03T06:03:32.354Z,14.93
2022-12-03T06:05:59.610Z,14.60
2022-12-03T06:08:26.700Z,16.33
2022-12-03T06:10:53.886Z,18.55
2022-12-03T06:13:20.975Z,15.07
2022-12-03T06:15:48.175Z,12.68
2022-12-03T06:18:15.583Z,15.65
2022-12-03T06:20:42.671Z,10.45
2022-12-03T06:23:09.788Z,14.75
2022-12-03T06:25:36.969Z,14.45
2022-12-03T06:28:04.126Z,15.40
2022-12-03T06:30:31.293Z,19.60
2022-12-03T06:32:58.566Z,17.13
2022-12-03T06:35:25.765Z,17.92
2022-12-03T06:37:52.872Z,18.98
2022-12-03T06:40:20.128Z,18.98
2022-12-03T06:42:47.228Z,18.38
2022-12-03T06:45:14.330Z,21.77
2022-12-03T06:47:41.553Z,22.33
2022-12-03T06:50:08.955Z,23.50
2022-12-03T06:52:36.032Z,20.02
2022-12-03T06:55:03.193Z,17.77
2022-12-03T06:57:30.321Z,24.40
2022-12-03T06:59:57.507Z,22.58
2022-12-03T07:02:25.118Z,22.27
2022-12-03T07:04:52.305Z,24.98
2022-12-03T07:07:19.392Z,18.92
2022-12-03T07:09:46.619Z,21.77
2022-12-03T07:12:13.708Z,24.00
2022-12-03T07:14:40.821Z,22.33
2022-12-03T07:17:07.986Z,23.20
2022-12-03T07:19:35.049Z,22.77
2022-12-03T07:22:02.206Z,18.40
2022-12-03T07:24:29.690Z,18.55
2022-12-03T07:26:56.784Z,17.77
2022-12-03T07:29:23.881Z,22.90
2022-12-03T07:31:51.204Z,26.83
2022-12-03T07:34:18.450Z,17.80
2022-12-03T07:36:45.568Z,23.67
2022-12-03T07:39:12.731Z,18.45
2022-12-03T07:41:39.836Z,15.18
2022-12-03T07:44:13.808Z,17.88
2022-12-03T07:46:41.727Z,15.88
2022-12-03T07:49:08.889Z,18.00
2022-12-03T07:51:36.101Z,19.35
2022-12-03T07:54:03.259Z,19.63
2022-12-03T07:56:30.373Z,21.83
2022-12-03T07:58:57.705Z,21.40
2022-12-03T08:01:24.907Z,26.48
2022-12-03T08:03:52.147Z,23.05
2022-12-03T08:06:19.250Z,18.73
2022-12-03T08:08:46.426Z,21.73
2022-12-03T08:11:17.011Z,21.25
2022-12-03T08:13:44.116Z,24.42
2022-12-03T08:16:18.797Z,17.98
2022-12-03T08:18:46.787Z,22.10
2022-12-03T08:21:14.785Z,25.38
2022-12-03T08:23:42.166Z,21.35
2022-12-03T08:26:25.981Z,24.05
2022-12-03T08:28:53.672Z,24.48
2022-12-03T08:31:32.250Z,25.08
2022-12-03T08:34:07.224Z,22.17
2022-12-03T08:36:36.393Z,20.48
2022-12-03T08:39:13.291Z,23.00
2022-12-03T08:41:59.133Z,24.60
2022-12-03T08:44:26.407Z,23.25
2022-12-03T08:46:54.729Z,21.23
2022-12-03T08:49:22.223Z,28.40
2022-12-03T08:51:49.693Z,25.25
2022-12-03T08:54:20.190Z,24.50
2022-12-03T08:56:47.389Z,24.92
2022-12-03T08:59:20.465Z,25.92
2022-12-03T09:01:48.265Z,25.75
2022-12-03T09:04:29.898Z,23.42
2022-12-03T09:06:57.727Z,23.45
2022-12-03T09:09:25.547Z,26.55
2022-12-03T09:11:53.980Z,26.73
2022-12-03T09:14:22.583Z,28.52
2022-12-03T09:16:56.463Z,30.63
2022-12-03T09:19:24.409Z,28.55
2022-12-03T09:21:51.525Z,24.02
2022-12-03T09:24:18.750Z,25.95
2022-12-03T09:26:45.960Z,21.85
2022-12-03T09:29:13.132Z,29.08
2022-12-03T09:31:40.618Z,26.52
2022-12-03T09:34:08.096Z,31.05
2022-12-03T09:36:35.247Z,21.27
2022-12-03T09:39:02.404Z,30.88
2022-12-03T09:41:29.460Z,23.30
2022-12-03T09:44:05.319Z,28.83
2022-12-03T09:46:33.362Z,25.10
2022-12-03T09:49:01.344Z,30.85
2022-12-03T09:51:30.892Z,28.08
2022-12-03T09:53:59.539Z,30.98
2022-12-03T09:56:26.664Z,32.65
2022-12-03T09:58:53.816Z,24.35
2022-12-03T10:01:21.080Z,27.83
2022-12-03T10:03:49.988Z,24.75
2022-12-03T10:06:20.286Z,25.73
2022-12-03T10:08:48.866Z,21.40
2022-12-03T10:11:16.425Z,27.23
2022-12-03T10:13:44.037Z,26.58
2022-12-03T10:16:13.214Z,28.95
2022-12-03T10:18:42.000Z,29.15
2022-12-03T10:21:17.565Z,31.23
2022-12-03T10:23:48.355Z,27.20
2022-12-03T10:26:18.114Z,22.58
2022-12-03T10:28:47.497Z,20.20
2022-12-03T10:31:15.458Z,22.98
2022-12-03T10:33:44.844Z,19.67
2022-12-03T10:36:16.117Z,21.73
2022-12-03T10:38:43.291Z,21.63
2022-12-03T10:41:21.430Z,16.48
2022-12-03T10:43:48.516Z,18.02
2022-12-03T10:46:18.697Z,20.08
2022-12-03T10:48:46.073Z,22.45
2022-12-03T10:51:22.013Z,22.40
2022-12-03T10:53:50.195Z,22.83
2022-12-03T10:56:20.366Z,15.15
2022-12-03T10:58:47.467Z,14.95
2022-12-03T11:01:16.864Z,23.08
2022-12-03T11:03:44.239Z,16.70
2022-12-03T11:06:15.756Z,24.77
2022-12-03T11:08:44.318Z,21.30
2022-12-03T11:11:21.927Z,17.48
2022-12-03T11:13:50.769Z,23.60
2022-12-03T11:16:36.644Z,17.73
2022-12-03T11:19:04.219Z,21.70
2022-12-03T11:21:31.406Z,17.63
2022-12-03T11:24:05.193Z,15.50
2022-12-03T11:26:38.165Z,23.50
2022-12-03T11:29:13.140Z,24.70
2022-12-03T11:31:44.665Z,20.58
2022-12-03T11:34:21.268Z,18.80
2022-12-03T11:37:06.973Z,14.95
2022-12-03T11:39:53.284Z,21.77
2022-12-03T11:42:26.204Z,18.02
2022-12-03T11:45:05.444Z,20.17
2022-12-03T11:47:46.119Z,18.88
2022-12-03T11:50:39.323Z,18.60
2022-12-03T11:53:15.322Z,21.85
2022-12-03T11:55:46.876Z,20.67
2022-12-03T11:58:34.219Z,18.40
2022-12-03T12:01:02.523Z,19.10
2022-12-03T12:03:33.317Z,15.88
2022-12-03T12:08:28.803Z,18.50
2022-12-03T12:10:55.887Z,18.52
2022-12-03T12:13:32.045Z,15.25
2022-12-03T12:15:59.648Z,19.75
2022-12-03T12:18:36.004Z,15.30
2022-12-03T12:21:21.744Z,18.02
2022-12-03T12:23:48.972Z,19.77
2022-12-03T12:26:16.079Z,13.32
2022-12-03T12:28:43.160Z,17.10
2022-12-03T12:31:11.889Z,14.48
2022-12-03T12:33:39.105Z,17.95
2022-12-03T12:36:08.850Z,18.25
2022-12-03T12:38:36.002Z,18.40
2022-12-03T12:41:05.742Z,17.83
2022-12-03T12:43:34.864Z,14.95
2022-12-03T12:46:24.934Z,17.42
2022-12-03T12:48:55.306Z,15.73
2022-12-03T12:51:26.616Z,22.77
2022-12-03T12:53:53.925Z,18.92
2022-12-03T12:56:25.576Z,20.42
2022-12-03T12:58:53.347Z,14.93
2022-12-03T13:01:25.687Z,15.70
2022-12-03T13:03:53.613Z,17.70
2022-12-03T13:06:24.342Z,19.48
2022-12-03T13:08:51.844Z,17.88
2022-12-03T13:11:25.275Z,18.65
2022-12-03T13:13:52.629Z,15.23
2022-12-03T13:16:27.280Z,15.70
2022-12-03T13:18:55.334Z,16.90
2022-12-03T13:21:22.419Z,18.05
2022-12-03T13:23:51.787Z,17.00
2022-12-03T13:26:34.672Z,15.98
2022-12-03T13:29:12.835Z,16.60
2022-12-03T13:31:43.897Z,15.98
2022-12-03T13:34:19.552Z,18.15
2022-12-03T13:36:52.035Z,13.95
2022-12-03T13:39:29.142Z,19.35
2022-12-03T13:42:15.141Z,15.00
2022-12-03T13:44:45.009Z,16.55
2022-12-03T13:47:14.065Z,22.10
2022-12-03T13:49:41.541Z,21.73
2022-12-03T13:52:13.962Z,23.63
2022-12-03T13:54:41.107Z,22.13
2022-12-03T13:57:08.187Z,24.23
2022-12-03T13:59:35.461Z,22.38
2022-12-03T14:02:02.603Z,20.42
2022-12-03T14:04:29.713Z,23.02
2022-12-03T14:06:56.847Z,21.60
2022-12-03T14:09:23.987Z,24.45
2022-12-03T14:12:10.338Z,22.90
2022-12-03T14:14:37.489Z,24.55
2022-12-03T14:17:04.689Z,24.42
2022-12-03T14:19:32.208Z,23.90
2022-12-03T14:22:00.238Z,22.08
2022-12-03T14:24:27.432Z,21.80
2022-12-03T14:26:54.580Z,23.25
2022-12-03T14:29:21.637Z,18.10
2022-12-03T14:31:48.757Z,24.08
2022-12-03T14:34:15.996Z,20.58
2022-12-03T14:36:43.148Z,25.45
2022-12-03T14:39:10.241Z,21.15
2022-12-03T14:41:56.143Z,20.98
2022-12-03T14:44:23.651Z,24.98
2022-12-03T14:46:55.478Z,24.27
2022-12-03T14:49:24.128Z,23.13
2022-12-03T14:51:51.320Z,23.83
2022-12-03T14:54:18.552Z,24.80
2022-12-03T14:56:45.793Z,20.38
2022-12-03T14:59:12.852Z,16.95
2022-12-03T15:01:40.025Z,28.80
2022-12-03T15:04:07.385Z,23.67
2022-12-03T15:06:34.467Z,21.75
2022-12-03T15:09:01.525Z,22.15
2022-12-03T15:11:28.683Z,21.08
2022-12-03T15:13:55.808Z,24.17
2022-12-03T15:16:23.648Z,21.55
2022-12-03T15:18:50.884Z,24.92
2022-12-03T15:21:17.973Z,19.55
2022-12-03T15:23:45.055Z,23.23
2022-12-03T15:26:12.266Z,18.77
2022-12-03T15:28:40.582Z,20.20
2022-12-03T15:31:09.253Z,22.77
2022-12-03T15:33:36.434Z,19.67
2022-12-03T15:36:03.551Z,22.98
2022-12-03T15:38:30.689Z,17.40
2022-12-03T15:40:58.224Z,21.58
2022-12-03T15:43:25.280Z,19.85
2022-12-03T15:45:52.402Z,19.73
2022-12-03T15:48:19.616Z,21.55
2022-12-03T15:50:46.705Z,17.15
2022-12-03T15:53:13.809Z,20.33
2022-12-03T15:55:41.026Z,21.92
2022-12-03T15:58:08.179Z,23.00
2022-12-03T16:00:35.250Z,22.23
2022-12-03T16:03:02.592Z,21.38
2022-12-03T16:05:29.684Z,23.92
2022-12-03T16:07:56.769Z,20.20
2022-12-03T16:10:24.598Z,18.67
2022-12-03T16:12:51.664Z,14.73
2022-12-03T16:15:23.587Z,15.73
2022-12-03T16:17:53.826Z,18.38
2022-12-03T16:20:20.959Z,13.43
2022-12-03T16:22:48.035Z,15.38
2022-12-03T16:25:15.238Z,14.68
2022-12-03T16:27:42.322Z,14.18
2022-12-03T16:30:09.780Z,14.73
2022-12-03T16:32:37.033Z,14.02
2022-12-03T16:35:04.666Z,12.23
2022-12-03T16:37:31.803Z,15.45
2022-12-03T16:39:58.908Z,12.63
2022-12-03T16:42:27.264Z,14.23
2022-12-03T16:45:12.160Z,14.88
2022-12-03T16:47:54.489Z,16.58
2022-12-03T16:50:29.069Z,24.67
2022-12-03T16:52:57.122Z,15.40
2022-12-03T16:55:24.356Z,13.30
2022-12-03T16:57:51.456Z,18.73
2022-12-03T17:00:21.606Z,18.30
2022-12-03T17:02:48.991Z,17.67
2022-12-03T17:05:16.120Z,15.60
2022-12-03T17:07:43.262Z,15.88
2022-12-03T17:10:10.710Z,19.13
2022-12-03T17:13:07.543Z,13.90
2022-12-03T17:15:25.019Z,15.32
2022-12-03T17:17:52.108Z,18.92
2022-12-03T17:20:19.231Z,12.90
2022-12-03T17:22:46.653Z,11.88
2022-12-03T17:25:13.793Z,17.75
2022-12-03T17:27:45.154Z,12.70
2022-12-03T17:30:13.655Z,10.73
2022-12-03T17:32:40.880Z,11.38
2022-12-03T17:35:08.507Z,11.68
2022-12-03T17:37:36.031Z,16.27
2022-12-03T17:40:03.449Z,13.77
2022-12-03T17:42:30.538Z,13.57
2022-12-03T17:44:57.665Z,12.55
2022-12-03T17:47:24.832Z,15.02
2022-12-03T17:49:52.407Z,11.50
2022-12-03T17:52:19.800Z,12.07
2022-12-03T17:55:09.897Z,14.30
2022-12-03T17:57:33.999Z,15.60
2022-12-03T18:00:01.153Z,12.02
2022-12-03T18:02:28.222Z,12.15
2022-12-03T18:04:55.366Z,15.73
2022-12-03T18:07:22.437Z,15.18
2022-12-03T18:09:49.575Z,14.38
2022-12-03T18:12:16.784Z,9.45
2022-12-03T18:14:43.907Z,11.63
2022-12-03T18:17:11.089Z,13.93
2022-12-03T18:19:38.385Z,16.40
2022-12-03T18:22:05.489Z,12.70
2022-12-03T18:24:32.637Z,12.05
2022-12-03T18:26:59.814Z,14.95
2022-12-03T18:29:26.964Z,14.68
2022-12-03T18:31:54.219Z,18.25
2022-12-03T18:34:21.457Z,13.35
2022-12-03T18:36:49.683Z,14.13
2022-12-03T18:39:27.975Z,18.00
2022-12-03T18:41:55.136Z,10.30
2022-12-03T18:44:22.356Z,12.10
2022-12-03T18:46:54.335Z,15.00
2022-12-03T18:49:22.064Z,13.25
2022-12-03T18:51:52.121Z,13.15
2022-12-03T18:54:23.113Z,18.17
2022-12-03T18:56:50.214Z,17.90
2022-12-03T18:59:17.336Z,14.25
2022-12-03T19:01:45.087Z,20.90
2022-12-03T19:04:12.311Z,20.40
2022-12-03T19:06:39.422Z,15.38
2022-12-03T19:09:06.593Z,12.32
2022-12-03T19:11:34.092Z,14.38
2022-12-03T19:14:02.856Z,15.55
2022-12-03T19:16:30.145Z,18.63
2022-12-03T19:18:57.347Z,18.13
2022-12-03T19:21:27.240Z,14.50
2022-12-03T19:24:22.598Z,17.52
2022-12-03T19:26:43.707Z,18.10
2022-12-03T19:29:10.902Z,17.70
2022-12-03T19:31:38.211Z,19.23
2022-12-03T19:34:05.374Z,14.70
2022-12-03T19:36:32.682Z,15.13
2022-12-03T19:39:01.245Z,14.32
2022-12-03T19:41:30.716Z,17.15
2022-12-03T19:43:58.573Z,17.98
2022-12-03T19:46:26.957Z,16.23
2022-12-03T19:48:55.419Z,16.92
2022-12-03T19:51:37.737Z,15.43
2022-12-03T19:54:06.119Z,19.52
2022-12-03T19:56:33.568Z,15.40
2022-12-03T19:59:00.791Z,16.80
2022-12-03T20:01:29.731Z,15.40
2022-12-03T20:03:58.158Z,17.52
2022-12-03T20:06:26.578Z,14.18
2022-12-03T20:08:57.442Z,17.50
2022-12-03T20:11:26.090Z,20.08
2022-12-03T20:13:54.176Z,17.00
2022-12-03T20:16:21.650Z,15.13
2022-12-03T20:18:49.512Z,16.80
2022-12-03T20:21:17.332Z,17.02
2022-12-03T20:23:44.436Z,19.70
2022-12-03T20:26:13.000Z,18.00
2022-12-03T20:28:40.123Z,18.20
2022-12-03T20:31:10.703Z,13.93
2022-12-03T20:33:38.675Z,14.85
2022-12-03T20:36:05.853Z,19.50
2022-12-03T20:38:33.111Z,19.67
2022-12-03T20:41:03.986Z,25.75
2022-12-03T20:43:31.114Z,21.73
2022-12-03T20:46:02.686Z,22.02
2022-12-03T20:48:30.379Z,13.45
2022-12-03T20:50:57.433Z,20.42
2022-12-03T20:53:25.517Z,15.68
2022-12-03T20:55:56.858Z,19.02
2022-12-03T20:58:24.256Z,19.02
2022-12-03T21:00:51.650Z,19.52
2022-12-03T21:03:18.984Z,16.85
2022-12-03T21:05:46.128Z,15.27
2022-12-03T21:08:13.318Z,16.25
2022-12-03T21:10:47.388Z,21.77
2022-12-03T21:13:15.273Z,15.30
2022-12-03T21:15:43.167Z,17.23
2022-12-03T21:18:11.533Z,22.17
2022-12-03T21:20:42.508Z,21.65
2022-12-03T21:23:09.660Z,15.07
2022-12-03T21:25:37.881Z,18.27
2022-12-03T21:28:06.288Z,20.02
2022-12-03T21:30:33.756Z,15.63
2022-12-03T21:33:01.301Z,17.98
2022-12-03T21:35:28.380Z,16.40
2022-12-03T21:37:55.543Z,18.90
2022-12-03T21:40:22.690Z,16.70
2022-12-03T21:42:49.829Z,15.40
2022-12-03T21:45:17.018Z,18.20
2022-12-03T21:47:47.368Z,15.93
2022-12-03T21:50:14.563Z,21.17
2022-12-03T21:52:41.731Z,19.60
2022-12-03T21:55:09.117Z,17.42
2022-12-03T21:57:37.133Z,23.73
2022-12-03T22:00:05.815Z,21.60
2022-12-03T22:02:33.001Z,20.40
2022-12-03T22:05:00.097Z,21.20
2022-12-03T22:07:27.268Z,23.75
2022-12-03T22:09:54.652Z,18.88
2022-12-03T22:12:21.949Z,20.05
2022-12-03T22:14:49.019Z,22.85
2022-12-03T22:17:16.257Z,19.50
2022-12-03T22:19:43.328Z,16.95
2022-12-03T22:22:10.403Z,16.77
2022-12-03T22:24:38.765Z,21.50
2022-12-03T22:27:05.942Z,21.65
2022-12-03T22:29:33.220Z,9.27
2022-12-03T22:32:00.432Z,19.80
2022-12-03T22:34:27.538Z,20.02
2022-12-03T22:36:54.617Z,24.75
2022-12-03T22:39:21.769Z,20.05
2022-12-03T22:41:48.867Z,19.67
2022-12-03T22:44:15.970Z,17.83
2022-12-03T22:46:43.171Z,20.73
2022-12-03T22:49:11.363Z,19.58
2022-12-03T22:51:38.458Z,21.75
2022-12-03T22:54:05.855Z,22.63
2022-12-03T22:56:33.388Z,20.15
2022-12-03T22:59:00.566Z,18.27
2022-12-03T23:01:29.268Z,20.90
2022-12-03T23:03:56.588Z,21.45
2022-12-03T23:06:24.253Z,17.70
2022-12-03T23:08:51.489Z,17.85
2022-12-03T23:11:18.972Z,24.27
2022-12-03T23:13:46.139Z,21.13
2022-12-03T23:16:15.267Z,25.75
2022-12-03T23:18:42.471Z,19.35
2022-12-03T23:21:09.656Z,22.35
2022-12-03T23:23:36.799Z,18.83
2022-12-03T23:26:07.900Z,24.23
2022-12-03T23:28:36.239Z,23.77
2022-12-03T23:31:03.695Z,17.33
2022-12-03T23:33:35.245Z,22.33
2022-12-03T23:36:06.128Z,22.05
2022-12-03T23:38:33.250Z,23.50
2022-12-03T23:41:04.449Z,24.33
2022-12-03T23:43:31.808Z,15.80
2022-12-03T23:46:06.219Z,21.45
2022-12-03T23:48:33.557Z,20.70
2022-12-03T23:51:00.783Z,21.00
2022-12-03T23:53:27.855Z,15.40
2022-12-03T23:55:54.986Z,19.02
2022-12-03T23:58:22.087Z,20.25
